createdAt,value
2019-04-19T00:01:09.161Z,7.80
2019-04-19T00:03:39.259Z,7.80
2019-04-19T00:06:21.402Z,7.50
2019-04-19T00:09:04.219Z,7.40
2019-04-19T00:11:29.685Z,7.20
2019-04-19T00:13:51.852Z,7.10
2019-04-19T00:16:21.944Z,7.10
2019-04-19T00:19:14.071Z,7.10
2019-04-19T00:21:54.502Z,7.10
2019-04-19T00:23:58.296Z,7.10
2019-04-19T00:26:29.576Z,7.00
2019-04-19T00:29:04.153Z,6.90
2019-04-19T00:31:42.788Z,6.80
2019-04-19T00:34:06.314Z,6.90
2019-04-19T00:36:38.298Z,6.90
2019-04-19T00:39:42.533Z,7.00
2019-04-19T00:42:35.639Z,6.90
2019-04-19T00:45:14.129Z,7.00
2019-04-19T00:47:46.404Z,6.80
2019-04-19T00:50:15.814Z,6.80
2019-04-19T00:52:55.777Z,6.80
2019-04-19T00:55:18.265Z,6.80
2019-04-19T00:57:53.343Z,6.80
2019-04-19T01:00:24.060Z,6.80
2019-04-19T01:02:54.480Z,6.70
2019-04-19T01:05:26.975Z,6.70
2019-04-19T01:08:01.897Z,6.80
2019-04-19T01:10:40.289Z,6.80
2019-04-19T01:13:13.835Z,6.80
2019-04-19T01:15:49.426Z,6.70
2019-04-19T01:18:20.447Z,6.50
2019-04-19T01:20:41.413Z,6.50
2019-04-19T01:23:16.641Z,6.50
2019-04-19T01:25:54.211Z,6.40
2019-04-19T01:28:25.802Z,6.50
2019-04-19T01:30:55.006Z,6.40
2019-04-19T01:33:37.377Z,6.20
2019-04-19T01:36:04.281Z,6.10
2019-04-19T01:38:43.726Z,6.10
2019-04-19T01:41:24.169Z,6.10
2019-04-19T01:44:06.621Z,6.20
2019-04-19T01:47:07.910Z,6.20
2019-04-19T01:49:49.328Z,6.00
2019-04-19T01:52:31.934Z,6.10
2019-04-19T01:54:53.346Z,6.20
2019-04-19T01:57:14.480Z,6.20
2019-04-19T01:59:48.981Z,6.10
2019-04-19T02:02:25.755Z,6.00
2019-04-19T02:05:00.775Z,5.90
2019-04-19T02:07:27.930Z,5.80
2019-04-19T02:10:12.446Z,5.90
2019-04-19T02:12:39.634Z,5.90
2019-04-19T02:15:07.892Z,5.60
2019-04-19T02:17:40.282Z,5.60
2019-04-19T02:20:09.267Z,5.60
2019-04-19T02:22:40.705Z,5.60
2019-04-19T02:25:17.178Z,5.70
2019-04-19T02:27:46.650Z,5.70
2019-04-19T02:30:34.195Z,5.80
2019-04-19T02:33:15.279Z,5.80
2019-04-19T02:35:51.637Z,5.90
2019-04-19T02:38:29.643Z,5.90
2019-04-19T02:41:19.698Z,5.80
2019-04-19T02:43:36.059Z,5.80
2019-04-19T02:46:16.169Z,5.80
2019-04-19T02:48:48.087Z,5.70
2019-04-19T02:53:50.674Z,5.70
2019-04-19T02:56:52.231Z,5.60
2019-04-19T02:59:30.760Z,5.60
2019-04-19T03:02:21.940Z,5.60
2019-04-19T03:04:53.782Z,5.50
2019-04-19T03:06:53.647Z,5.50
2019-04-19T03:09:24.234Z,5.30
2019-04-19T03:12:07.174Z,5.30
2019-04-19T03:14:47.249Z,5.30
2019-04-19T03:17:19.223Z,5.30
2019-04-19T03:19:52.595Z,5.30
2019-04-19T03:22:25.593Z,5.30
2019-04-19T03:24:54.710Z,5.30
2019-04-19T03:27:15.319Z,5.30
2019-04-19T03:29:46.596Z,5.40
2019-04-19T03:35:03.703Z,5.30
2019-04-19T03:37:47.817Z,5.10
2019-04-19T03:40:29.896Z,5.10
2019-04-19T03:43:28.178Z,5.00
2019-04-19T03:45:57.670Z,5.00
2019-04-19T03:48:28.688Z,5.00
2019-04-19T03:51:00.591Z,4.90
2019-04-19T03:53:41.762Z,4.90
2019-04-19T03:56:06.437Z,4.90
2019-04-19T03:58:18.518Z,5.00
2019-04-19T04:00:51.877Z,5.00
2019-04-19T04:03:28.199Z,4.90
2019-04-19T04:05:55.475Z,4.80
2019-04-19T04:08:31.421Z,4.90
2019-04-19T04:11:52.851Z,4.80
2019-04-19T04:14:46.779Z,4.80
2019-04-19T04:17:08.038Z,4.80
2019-04-19T04:19:39.650Z,4.70
2019-04-19T04:22:18.757Z,4.70
2019-04-19T04:24:53.426Z,4.80
2019-04-19T04:27:31.725Z,4.70
2019-04-19T04:30:01.481Z,4.60
2019-04-19T04:32:40.742Z,4.70
2019-04-19T04:35:13.570Z,4.70
2019-04-19T04:37:42.096Z,4.60
2019-04-19T04:40:02.305Z,4.70
2019-04-19T04:42:42.001Z,4.60
2019-04-19T04:45:38.887Z,4.50
2019-04-19T04:48:20.296Z,4.50
2019-04-19T04:51:15.685Z,4.40
2019-04-19T04:53:34.196Z,4.40
2019-04-19T04:56:10.201Z,4.40
2019-04-19T04:58:42.691Z,4.50
2019-04-19T05:01:25.121Z,4.60
2019-04-19T05:04:02.026Z,4.70
2019-04-19T05:06:30.951Z,4.80
2019-04-19T05:09:05.180Z,4.90
2019-04-19T05:11:37.692Z,5.00
2019-04-19T05:14:19.532Z,5.10
2019-04-19T05:16:51.038Z,5.10
2019-04-19T05:19:18.368Z,5.20
2019-04-19T05:21:52.793Z,5.40
2019-04-19T05:24:27.670Z,5.40
2019-04-19T05:26:57.702Z,5.50
2019-04-19T05:29:19.929Z,5.60
2019-04-19T05:31:46.787Z,5.70
2019-04-19T05:34:32.259Z,5.90
2019-04-19T05:37:05.521Z,5.90
2019-04-19T05:39:51.315Z,6.00
2019-04-19T05:42:42.798Z,6.10
2019-04-19T05:45:31.547Z,6.20
2019-04-19T05:47:37.675Z,6.40
2019-04-19T05:50:24.134Z,6.50
2019-04-19T05:52:48.087Z,6.60
2019-04-19T05:55:02.453Z,6.60
2019-04-19T05:57:50.379Z,6.80
2019-04-19T06:00:20.657Z,6.90
2019-04-19T06:02:53.437Z,7.10
2019-04-19T06:05:37.651Z,7.10
2019-04-19T06:07:59.702Z,7.20
2019-04-19T06:10:19.403Z,7.30
2019-04-19T06:13:00.414Z,7.40
2019-04-19T06:15:51.126Z,7.50
2019-04-19T06:18:32.132Z,7.60
2019-04-19T06:21:15.792Z,7.80
2019-04-19T06:23:50.807Z,8.00
2019-04-19T06:29:10.894Z,8.40
2019-04-19T06:31:27.084Z,8.50
2019-04-19T06:33:56.228Z,8.70
2019-04-19T06:36:10.505Z,8.80
2019-04-19T06:38:40.122Z,9.00
2019-04-19T06:41:16.694Z,9.20
2019-04-19T06:43:55.369Z,9.30
2019-04-19T06:46:30.595Z,9.50
2019-04-19T06:48:54.330Z,9.60
2019-04-19T06:51:29.702Z,9.80
2019-04-19T06:53:58.912Z,10.00
2019-04-19T06:56:36.450Z,10.20
2019-04-19T06:59:15.351Z,10.40
2019-04-19T07:01:43.763Z,10.60
2019-04-19T07:04:08.581Z,10.70
2019-04-19T07:06:53.558Z,10.90
2019-04-19T07:09:38.824Z,11.10
2019-04-19T07:12:09.120Z,11.30
2019-04-19T07:14:21.348Z,11.50
2019-04-19T07:17:07.250Z,11.70
2019-04-19T07:19:38.716Z,11.90
2019-04-19T07:22:09.711Z,12.10
2019-04-19T07:24:47.907Z,12.20
2019-04-19T07:27:12.534Z,12.30
2019-04-19T07:29:32.078Z,12.50
2019-04-19T07:32:02.266Z,12.70
2019-04-19T07:34:47.748Z,12.80
2019-04-19T07:37:18.689Z,12.90
2019-04-19T07:40:00.277Z,13.10
2019-04-19T07:42:30.445Z,13.20
2019-04-19T07:44:51.244Z,13.30
2019-04-19T07:47:42.891Z,13.30
2019-04-19T07:50:12.318Z,13.50
2019-04-19T07:52:44.481Z,13.70
2019-04-19T07:55:10.981Z,13.80
2019-04-19T07:58:13.636Z,14.00
2019-04-19T08:03:25.784Z,14.20
2019-04-19T08:05:46.464Z,14.30
2019-04-19T08:13:31.635Z,14.70
2019-04-19T08:28:16.224Z,15.10
2019-04-19T08:30:45.264Z,15.20
2019-04-19T08:33:10.540Z,15.20
2019-04-19T08:35:46.973Z,15.30
2019-04-19T08:38:19.424Z,15.40
2019-04-19T08:41:02.123Z,15.40
2019-04-19T08:43:31.873Z,15.50
2019-04-19T08:45:55.512Z,15.60
2019-04-19T08:48:57.671Z,15.80
2019-04-19T08:51:45.243Z,16.00
2019-04-19T08:54:37.056Z,16.00
2019-04-19T08:56:56.750Z,16.20
2019-04-19T08:59:43.999Z,16.20
2019-04-19T09:02:10.790Z,16.20
2019-04-19T09:04:45.720Z,16.30
2019-04-19T09:09:59.957Z,16.60
2019-04-19T09:12:19.127Z,16.60
2019-04-19T09:14:53.709Z,16.80
2019-04-19T09:17:45.260Z,16.90
2019-04-19T09:22:30.625Z,17.10
2019-04-19T09:24:54.255Z,17.20
2019-04-19T09:27:40.526Z,17.30
2019-04-19T09:30:04.452Z,17.40
2019-04-19T09:32:27.298Z,17.70
2019-04-19T09:35:00.589Z,17.90
2019-04-19T09:37:42.751Z,18.00
2019-04-19T09:40:06.135Z,18.00
2019-04-19T09:42:44.735Z,18.10
2019-04-19T09:45:04.395Z,18.40
2019-04-19T09:47:37.833Z,18.60
2019-04-19T09:50:19.965Z,18.70
2019-04-19T09:53:10.949Z,18.60
2019-04-19T09:55:39.396Z,18.70
2019-04-19T09:58:11.604Z,18.70
2019-04-19T10:00:28.358Z,18.70
2019-04-19T10:03:01.459Z,18.80
2019-04-19T10:05:30.770Z,18.90
2019-04-19T10:08:03.989Z,19.00
2019-04-19T10:10:36.768Z,18.90
2019-04-19T10:13:07.824Z,18.80
2019-04-19T10:16:00.750Z,18.80
2019-04-19T10:18:44.338Z,18.90
2019-04-19T10:21:22.337Z,19.10
2019-04-19T10:23:48.053Z,19.10
2019-04-19T10:26:24.252Z,19.00
2019-04-19T10:28:58.622Z,19.20
2019-04-19T10:31:35.659Z,19.30
2019-04-19T10:34:12.295Z,19.40
2019-04-19T10:36:47.723Z,19.50
2019-04-19T10:39:21.858Z,19.60
2019-04-19T10:41:52.319Z,19.60
2019-04-19T10:44:27.251Z,19.60
2019-04-19T10:46:58.738Z,19.60
2019-04-19T10:49:36.274Z,19.60
2019-04-19T10:52:05.114Z,19.60
2019-04-19T10:54:36.323Z,19.60
2019-04-19T10:57:23.271Z,19.70
2019-04-19T11:00:00.851Z,19.90
2019-04-19T11:02:34.019Z,20.10
2019-04-19T11:05:09.079Z,20.10
2019-04-19T11:07:45.542Z,20.20
2019-04-19T11:10:16.072Z,20.30
2019-04-19T11:12:47.058Z,20.40
2019-04-19T11:15:18.414Z,20.50
2019-04-19T11:17:49.837Z,20.50
2019-04-19T11:20:32.440Z,20.50
2019-04-19T11:22:53.998Z,20.70
2019-04-19T11:25:26.022Z,20.80
2019-04-19T11:27:56.804Z,20.90
2019-04-19T11:30:59.996Z,20.70
2019-04-19T11:33:33.075Z,20.60
2019-04-19T11:36:03.803Z,20.50
2019-04-19T11:38:33.911Z,20.40
2019-04-19T11:41:05.067Z,20.40
2019-04-19T11:43:37.733Z,20.50
2019-04-19T11:46:07.968Z,20.60
2019-04-19T11:48:40.110Z,20.60
2019-04-19T11:51:10.240Z,20.80
2019-04-19T11:53:45.123Z,20.90
2019-04-19T11:56:54.180Z,20.90
2019-04-19T11:59:48.637Z,21.10
2019-04-19T12:02:27.750Z,21.50
2019-04-19T12:05:11.089Z,21.50
2019-04-19T12:07:32.527Z,21.60
2019-04-19T12:10:03.584Z,21.60
2019-04-19T12:12:43.382Z,21.60
2019-04-19T12:15:17.867Z,21.60
2019-04-19T12:17:48.255Z,22.10
2019-04-19T12:20:19.364Z,22.40
2019-04-19T12:22:50.072Z,22.60
2019-04-19T12:25:23.701Z,22.80
2019-04-19T12:27:54.063Z,22.90
2019-04-19T12:30:25.195Z,23.00
2019-04-19T12:32:57.490Z,22.90
2019-04-19T12:35:27.740Z,22.80
2019-04-19T12:37:58.119Z,22.60
2019-04-19T12:40:31.814Z,22.70
2019-04-19T12:43:02.262Z,22.90
2019-04-19T12:45:33.550Z,22.80
2019-04-19T12:48:04.977Z,23.00
2019-04-19T12:50:37.763Z,23.20
2019-04-19T12:53:09.519Z,23.50
2019-04-19T12:55:39.961Z,23.80
2019-04-19T12:58:12.243Z,24.00
2019-04-19T13:01:19.880Z,24.20
2019-04-19T13:04:02.430Z,24.30
2019-04-19T13:06:33.800Z,24.60
2019-04-19T13:09:08.993Z,24.80
2019-04-19T13:11:40.770Z,25.00
2019-04-19T13:14:12.688Z,25.00
2019-04-19T13:16:44.094Z,24.80
2019-04-19T13:19:14.374Z,24.80
2019-04-19T13:21:48.179Z,24.60
2019-04-19T13:24:20.484Z,24.90
2019-04-19T13:26:51.391Z,24.70
2019-04-19T13:29:23.151Z,24.80
2019-04-19T13:31:54.708Z,24.50
2019-04-19T13:34:25.291Z,24.60
2019-04-19T13:37:17.248Z,24.80
2019-04-19T13:39:56.754Z,25.50
2019-04-19T13:42:30.879Z,28.50
2019-04-19T13:45:11.202Z,28.40
2019-04-19T13:47:34.354Z,29.80
2019-04-19T13:50:16.902Z,30.70
2019-04-19T13:52:38.749Z,31.40
2019-04-19T13:55:09.074Z,32.00
2019-04-19T13:57:39.826Z,32.90
2019-04-19T14:00:20.328Z,33.80
2019-04-19T14:02:53.647Z,34.40
2019-04-19T14:05:24.227Z,34.40
2019-04-19T14:07:57.148Z,34.50
2019-04-19T14:10:27.581Z,34.70
2019-04-19T14:12:58.853Z,34.70
2019-04-19T14:15:30.935Z,34.60
2019-04-19T14:18:02.370Z,33.90
2019-04-19T14:20:40.350Z,32.80
2019-04-19T14:23:05.697Z,32.30
2019-04-19T14:25:37.123Z,32.30
2019-04-19T14:28:07.832Z,33.10
2019-04-19T14:30:39.523Z,33.50
2019-04-19T14:33:12.668Z,33.30
2019-04-19T14:35:43.956Z,31.80
2019-04-19T14:38:14.219Z,31.30
2019-04-19T14:40:44.330Z,30.70
2019-04-19T14:43:16.338Z,31.10
2019-04-19T14:45:47.042Z,30.80
2019-04-19T14:48:24.555Z,31.40
2019-04-19T14:50:55.383Z,32.20
2019-04-19T14:53:20.840Z,32.40
2019-04-19T14:55:52.533Z,32.80
2019-04-19T14:58:22.717Z,33.60
2019-04-19T15:01:19.141Z,33.80
2019-04-19T15:03:53.343Z,34.00
2019-04-19T15:06:23.866Z,34.30
2019-04-19T15:08:57.298Z,34.00
2019-04-19T15:11:27.678Z,33.40
2019-04-19T15:13:58.945Z,34.10
2019-04-19T15:16:29.101Z,34.00
2019-04-19T15:19:00.139Z,34.00
2019-04-19T15:21:30.415Z,34.50
2019-04-19T15:24:00.724Z,34.50
2019-04-19T15:26:30.980Z,34.20
2019-04-19T15:29:02.910Z,34.20
2019-04-19T15:31:34.370Z,34.60
2019-04-19T15:34:04.671Z,35.40
2019-04-19T15:36:37.677Z,35.60
2019-04-19T15:39:11.137Z,35.20
2019-04-19T15:41:42.200Z,34.10
2019-04-19T15:44:12.683Z,33.10
2019-04-19T15:46:55.712Z,32.10
2019-04-19T15:49:28.215Z,30.70
2019-04-19T15:52:05.874Z,29.20
2019-04-19T15:54:36.556Z,27.60
2019-04-19T15:57:07.962Z,26.40
2019-04-19T15:59:43.104Z,25.70
2019-04-19T16:02:36.056Z,25.40
2019-04-19T16:05:24.406Z,25.20
2019-04-19T16:08:09.272Z,24.70
2019-04-19T16:10:55.714Z,24.50
2019-04-19T16:13:25.871Z,24.30
2019-04-19T16:16:00.377Z,24.00
2019-04-19T16:18:44.512Z,23.80
2019-04-19T16:21:26.028Z,23.60
2019-04-19T16:23:55.273Z,23.40
2019-04-19T16:26:26.714Z,23.20
2019-04-19T16:29:00.097Z,23.10
2019-04-19T16:31:32.755Z,23.10
2019-04-19T16:34:10.351Z,23.10
2019-04-19T16:36:43.678Z,23.00
2019-04-19T16:39:31.501Z,23.00
2019-04-19T16:42:11.036Z,22.90
2019-04-19T16:47:37.390Z,22.70
2019-04-19T16:50:38.606Z,22.70
2019-04-19T16:53:10.974Z,22.70
2019-04-19T16:56:03.598Z,22.70
2019-04-19T17:04:56.730Z,22.50
2019-04-19T17:07:53.529Z,22.50
2019-04-19T17:10:34.369Z,22.30
2019-04-19T17:13:20.572Z,22.20
2019-04-19T17:16:19.742Z,22.10
2019-04-19T17:19:46.666Z,22.00
2019-04-19T17:22:41.116Z,21.90
2019-04-19T17:25:34.995Z,21.90
2019-04-19T17:31:06.437Z,21.70
2019-04-19T17:33:50.451Z,21.60
2019-04-19T17:36:24.597Z,21.50
2019-04-19T17:39:12.929Z,21.50
2019-04-19T17:41:46.892Z,21.40
2019-04-19T17:44:25.633Z,21.40
2019-04-19T17:47:11.609Z,21.30
2019-04-19T17:49:48.085Z,21.20
2019-04-19T17:53:04.516Z,21.10
2019-04-19T17:55:48.215Z,21.00
2019-04-19T17:58:27.725Z,20.80
2019-04-19T18:01:00.024Z,20.70
2019-04-19T18:03:47.006Z,20.50
2019-04-19T18:06:20.309Z,20.40
2019-04-19T18:09:05.733Z,20.30
2019-04-19T18:11:53.471Z,20.10
2019-04-19T18:15:01.926Z,20.00
2019-04-19T18:17:55.555Z,19.80
2019-04-19T18:20:37.213Z,19.40
2019-04-19T18:23:38.021Z,19.00
2019-04-19T18:27:09.116Z,18.50
2019-04-19T18:29:46.187Z,18.20
2019-04-19T18:32:45.109Z,17.70
2019-04-19T18:35:28.729Z,17.40
2019-04-19T18:44:50.026Z,16.20
2019-04-19T18:47:28.971Z,15.90
2019-04-19T18:49:59.698Z,15.80
2019-04-19T18:52:39.457Z,15.70
2019-04-19T18:55:11.731Z,15.60
2019-04-19T18:57:44.416Z,15.50
2019-04-19T19:00:12.445Z,15.40
2019-04-19T19:02:45.944Z,15.20
2019-04-19T19:05:18.274Z,15.00
2019-04-19T19:07:59.840Z,14.90
2019-04-19T19:10:37.506Z,14.60
2019-04-19T19:17:32.395Z,14.40
2019-04-19T19:24:22.465Z,14.00
2019-04-19T19:26:42.883Z,13.80
2019-04-19T19:29:07.813Z,13.80
2019-04-19T19:31:48.864Z,13.50
2019-04-19T19:34:26.186Z,13.50
2019-04-19T19:36:55.156Z,13.50
2019-04-19T19:39:30.317Z,13.50
2019-04-19T19:42:37.489Z,13.50
2019-04-19T19:44:45.928Z,13.40
2019-04-19T19:47:54.135Z,13.40
2019-04-19T19:50:23.585Z,13.40
2019-04-19T19:52:59.592Z,13.20
2019-04-19T19:55:44.566Z,12.90
2019-04-19T19:58:07.604Z,12.60
2019-04-19T20:00:47.851Z,12.50
2019-04-19T20:03:13.572Z,12.30
2019-04-19T20:05:42.265Z,12.20
2019-04-19T20:08:24.465Z,12.20
2019-04-19T20:10:51.365Z,12.20
2019-04-19T20:13:26.812Z,12.20
2019-04-19T20:15:54.643Z,12.20
2019-04-19T20:18:33.238Z,12.20
2019-04-19T20:21:00.765Z,12.10
2019-04-19T20:23:35.655Z,12.00
2019-04-19T20:26:20.673Z,11.90
2019-04-19T20:28:43.105Z,11.80
2019-04-19T20:31:22.514Z,11.60
2019-04-19T20:33:55.342Z,11.70
2019-04-19T20:36:23.332Z,11.50
2019-04-19T20:38:58.784Z,11.30
2019-04-19T20:41:34.796Z,11.10
2019-04-19T20:44:16.635Z,11.10
2019-04-19T20:46:33.426Z,11.00
2019-04-19T20:49:08.207Z,11.10
2019-04-19T20:51:49.343Z,11.00
2019-04-19T20:54:41.134Z,11.00
2019-04-19T20:57:27.212Z,11.00
2019-04-19T20:59:45.253Z,10.90
2019-04-19T21:02:18.583Z,10.80
2019-04-19T21:04:49.102Z,10.70
2019-04-19T21:07:18.042Z,10.70
2019-04-19T21:09:51.687Z,10.70
2019-04-19T21:12:27.314Z,10.60
2019-04-19T21:15:06.776Z,10.60
2019-04-19T21:17:36.424Z,10.60
2019-04-19T21:20:02.789Z,10.60
2019-04-19T21:22:38.163Z,10.50
2019-04-19T21:25:16.631Z,10.40
2019-04-19T21:27:42.533Z,10.40
2019-04-19T21:30:14.688Z,10.30
2019-04-19T21:32:45.889Z,10.20
2019-04-19T21:35:19.013Z,10.20
2019-04-19T21:37:49.949Z,10.10
2019-04-19T21:40:27.154Z,10.10
2019-04-19T21:42:58.371Z,9.90
2019-04-19T21:45:34.947Z,9.80
2019-04-19T21:48:01.352Z,9.80
2019-04-19T21:50:36.932Z,9.70
2019-04-19T21:53:08.913Z,9.70
2019-04-19T21:55:40.792Z,9.70
2019-04-19T21:58:15.103Z,9.70
2019-04-19T22:00:58.576Z,9.70
2019-04-19T22:03:30.681Z,9.60
2019-04-19T22:06:13.263Z,9.60
2019-04-19T22:08:38.234Z,9.60
2019-04-19T22:11:07.145Z,9.60
2019-04-19T22:13:41.198Z,9.50
2019-04-19T22:16:10.460Z,9.40
2019-04-19T22:18:46.641Z,9.20
2019-04-19T22:21:14.470Z,9.20
2019-04-19T22:23:49.412Z,9.10
2019-04-19T22:26:26.939Z,9.10
2019-04-19T22:28:51.274Z,9.10
2019-04-19T22:31:30.206Z,9.10
2019-04-19T22:33:58.618Z,9.10
2019-04-19T22:36:35.603Z,9.20
2019-04-19T22:39:02.443Z,9.10
2019-04-19T22:41:34.867Z,8.90
2019-04-19T22:44:07.011Z,8.80
2019-04-19T22:46:41.754Z,8.70
2019-04-19T22:49:11.285Z,8.60
2019-04-19T22:51:42.621Z,8.60
2019-04-19T22:54:14.828Z,8.60
2019-04-19T22:56:57.336Z,8.60
2019-04-19T22:59:21.620Z,8.50
2019-04-19T23:02:10.308Z,8.50
2019-04-19T23:04:43.670Z,8.40
2019-04-19T23:07:16.684Z,8.40
2019-04-19T23:09:50.786Z,8.30
2019-04-19T23:12:22.708Z,8.30
2019-04-19T23:14:55.087Z,8.20
2019-04-19T23:17:31.874Z,8.00
2019-04-19T23:20:01.503Z,8.00
2019-04-19T23:22:38.153Z,7.90
2019-04-19T23:25:09.306Z,7.90
2019-04-19T23:27:46.224Z,7.80
2019-04-19T23:30:22.404Z,7.90
2019-04-19T23:32:52.362Z,7.90
2019-04-19T23:35:32.673Z,7.90
2019-04-19T23:38:07.380Z,8.00
2019-04-19T23:40:39.710Z,7.90
2019-04-19T23:43:10.596Z,7.70
2019-04-19T23:45:45.769Z,7.60
2019-04-19T23:48:20.089Z,7.50
2019-04-19T23:50:52.361Z,7.50
2019-04-19T23:53:29.959Z,7.50
2019-04-19T23:56:22.314Z,7.50
2019-04-19T23:58:44.238Z,7.50
